Delavan, WI (53115)

12:11 PM CDT del 27 Luglio 2016 (GMT -0500)
4th st | | Change Station

Alt. 938 ft 42.63 °N, 88.64 °W | Updated 1 second ago

Scattered Clouds
Nubi sparse
86.1 °F
Sembra 89 °F
N
0.0
Vento Variabile Vento da Sud

Oggi
Massima -- | Minima -- °F
--% Possibilità di precip.
Ieri
Massima -- | Minima -- °F
Precip. -- in
Pressione 30.02 in
Visibilità 10.0 miglia
Nuvole Nubi sparse 4400 ft
Indice di calore 89 °F
Punto di rugiada 71 °F
Umidità 54%
Piovosità 0.00 in
Spessore del manto nevoso Non disponibile.
5:41 AM 8:19 PM
Ultimo quarto, 41% visible
METAR KBUU 271655Z AUTO 23009KT 10SM SCT044 29/19 A3002 RMK AO2 T02910188
Pressione 30.02 in
Visibilità 10.0 miglia
Nuvole Nubi sparse 4400 ft
Indice di calore 89 °F
Punto di rugiada 71 °F
Umidità 54%
Piovosità 0.00 in
Spessore del manto nevoso Non disponibile.
5:41 AM 8:19 PM
Ultimo quarto, 41% visible
METAR KBUU 271655Z AUTO 23009KT 10SM SCT044 29/19 A3002 RMK AO2 T02910188

10-Day Weather Forecast

Almanac

Astronomia

Jul. 27, 2016 Alba Tramonto
Ora attuale
Crepuscolo civile
Crepuscolo nautico
Crepuscolo astronomico
Luna
Estensione della luce visibile
Lunghezza del giorno
Tomorrow will be .
, % of the Moon is Illuminated

Gli estremi di oggi

State Highs State Lows

Community

WunderPhotos

Upload Photos

1,927,884 foto caricate!

WunderBlog® & News

Nearby

Qualità dell'aria

  Qualità dell'aria Indice AQ Inquinante
Not available.

Profondità neve

Stazione Profondità Altitudine

Attività sismica

Città  Distanza Mag. Data & Ora
Minimo Magnitudo Mostrato è 2.5.

Temperature delle acque costiere

Località Temperatura

Stations

Stazioni meteo nelle vicinanze

Ubicazione della stazione Temp. Raffreddamento del vento Punto di rugiada Umidità Vento Precip. Alt. Aggiornato Tipo
                   

Watches & Warnings

There are currently no watches in effect.